Seo Young — D7LH — position and weather

sailwx.info

Track history (hours):
 
Tides and Currents Weather Stations Pressure Air Temp Water Temp Dewpoint Dewpoint Depression Visibility Wind Speed Wind Dir Waves Ship Positions

Seo Young

Last reported at 2014-Dec-17 09:33 UTC. Time now 2014-Dec-23 03:42 UTC.
Position N 31°02' E 122°15'.

Length 121 m; draft 5 m.

Type: Tanker. MMSI: 440036000.

Date/timePositionNaut miles runAvg speedWind from/ knotsBaromVisibWave heightAir tempDewpointWater temp
2014-Dec-17 09:33N 31°02' E 122°15'1010.4
2014-Dec-17 08:34N 31°04' E 122°03'1211.8
2014-Dec-17 07:33N 31°10' E 121°51'1414.5
2014-Dec-17 06:33N 31°21' E 121°40'1110.8
2014-Dec-17 05:33N 31°26' E 121°29'1312.5
2014-Dec-17 04:33N 31°35' E 121°18'1413.6
2014-Dec-17 03:33N 31°44' E 121°06'1212.2
2014-Dec-17 02:33N 31°50' E 120°54'1212.2
2014-Dec-17 01:33N 32°01' E 120°46'1212.3
2014-Dec-17 00:33N 32°04' E 120°32'1212.1
2014-Dec-16 23:33N 31°58' E 120°19'1110.6
2014-Dec-16 22:30N 31°56' E 120°06'0 0.0
2014-Dec-16 21:33N 31°56' E 120°06'0 0.0
2014-Dec-16 20:33N 31°56' E 120°06'0 0.0
2014-Dec-16 19:33N 31°56' E 120°06'0 0.0
2014-Dec-16 18:33N 31°56' E 120°06'0 0.0
2014-Dec-16 17:33N 31°56' E 120°06'0 0.0
2014-Dec-16 16:33N 31°56' E 120°06'0 0.0
2014-Dec-16 15:27N 31°56' E 120°06'0 0.0
2014-Dec-16 14:33N 31°56' E 120°06'0 0.0
2014-Dec-16 13:33N 31°56' E 120°06'0 0.0
2014-Dec-16 12:33N 31°56' E 120°06'0 0.0
2014-Dec-16 11:33N 31°56' E 120°06'0 0.0
2014-Dec-16 10:27N 31°56' E 120°06'0 0.0
2014-Dec-16 09:33N 31°56' E 120°06'0 0.0
2014-Dec-16 08:33N 31°56' E 120°06'0 0.0
2014-Dec-16 07:33N 31°56' E 120°06'0 0.0
2014-Dec-16 06:33N 31°56' E 120°06'0 0.0
2014-Dec-16 05:33N 31°56' E 120°06'0 0.0
2014-Dec-16 04:15N 31°56' E 120°06'0 0.0
2014-Dec-16 03:30N 31°56' E 120°06'0 0.0
2014-Dec-16 02:16N 31°56' E 120°06'0 0.0
2014-Dec-16 01:06N 31°56' E 120°06'0 0.0
2014-Dec-16 00:26N 31°56' E 120°06'0 0.0
2014-Dec-15 23:33N 31°56' E 120°06'0 0.0
2014-Dec-15 22:30N 31°56' E 120°06'0 0.0
2014-Dec-15 21:06N 31°56' E 120°06'0 0.0
2014-Dec-15 20:33N 31°56' E 120°06'0 0.0
2014-Dec-15 19:33N 31°56' E 120°06'0 0.0
2014-Dec-15 18:27N 31°56' E 120°06'0 0.0
2014-Dec-15 17:27N 31°56' E 120°06'0 0.0
2014-Dec-15 16:21N 31°56' E 120°06'0 0.0
2014-Dec-15 15:27N 31°56' E 120°06'0 0.1
2014-Dec-15 14:30N 31°56' E 120°06'3 2.8
2014-Dec-15 13:29N 31°56' E 120°10'0 0.0
2014-Dec-15 11:26N 31°56' E 120°10'0 0.0
2014-Dec-15 09:05N 31°56' E 120°10'0 0.0
2014-Dec-15 07:14N 31°56' E 120°10'0 0.0
2014-Dec-15 06:26N 31°56' E 120°10'0 0.0
2014-Dec-15 05:20N 31°56' E 120°10'2 3.1
2014-Dec-15 04:33N 31°56' E 120°13'10 9.9
2014-Dec-15 03:33N 31°58' E 120°24'6 6.3
2014-Dec-15 02:33N 32°02' E 120°30'1212.3
2014-Dec-15 01:33N 32°01' E 120°44'1111.4
2014-Dec-15 00:33N 31°52' E 120°54'1110.7
2014-Dec-14 23:33N 31°46' E 121°04'1312.6
2014-Dec-14 22:33N 31°38' E 121°15'6 5.7
2014-Dec-14 21:33N 31°34' E 121°20'0 0.0
2014-Dec-14 20:33N 31°34' E 121°20'0 0.1
2014-Dec-14 19:33N 31°34' E 121°20'0 0.1
2014-Dec-14 18:33N 31°34' E 121°20'0 0.0
2014-Dec-14 17:33N 31°34' E 121°20'0 0.0
2014-Dec-14 16:33N 31°34' E 121°20'0 0.0
2014-Dec-14 15:33N 31°34' E 121°20'0 0.0
2014-Dec-14 14:30N 31°34' E 121°20'0 0.0
2014-Dec-14 13:33N 31°34' E 121°20'0 0.2
2014-Dec-14 12:33N 31°34' E 121°20'0 0.1
2014-Dec-14 11:30N 31°34' E 121°20'0 0.0
2014-Dec-14 10:33N 31°34' E 121°20'0 0.0
2014-Dec-14 09:33N 31°34' E 121°20'5 5.0
2014-Dec-14 08:33N 31°31' E 121°24'9 9.4
2014-Dec-14 07:33N 31°24' E 121°33'10 9.6
2014-Dec-14 06:33N 31°20' E 121°42'1010.4
2014-Dec-14 05:33N 31°16' E 121°54'1212.1
2014-Dec-14 04:33N 31°13' E 122°07'1212.3
2014-Dec-14 03:33N 31°06' E 122°19'  
2014-Dec-10 04:33N 24°30' E 119°10'5210.1
2014-Dec-09 23:26N 23°55' E 118°28'  
Track history (hours):
 
Tides and Currents Weather Stations Pressure Air Temp Water Temp Dewpoint Dewpoint Depression Visibility Wind Speed Wind Dir Waves Ship Positions

Seo Young

Last reported at 2014-Dec-17 09:33 UTC. Time now 2014-Dec-23 03:42 UTC.
Position N 31°02' E 122°15'.

Length 121 m; draft 5 m.

Type: Tanker. MMSI: 440036000.

Date/timePositionNaut miles runAvg speedWind from/ knotsBaromVisibWave heightAir tempDewpointWater temp
2014-Dec-17 09:33N 31°02' E 122°15'1010.4
2014-Dec-17 08:34N 31°04' E 122°03'1211.8
2014-Dec-17 07:33N 31°10' E 121°51'1414.5
2014-Dec-17 06:33N 31°21' E 121°40'1110.8
2014-Dec-17 05:33N 31°26' E 121°29'1312.5
2014-Dec-17 04:33N 31°35' E 121°18'1413.6
2014-Dec-17 03:33N 31°44' E 121°06'1212.2
2014-Dec-17 02:33N 31°50' E 120°54'1212.2
2014-Dec-17 01:33N 32°01' E 120°46'1212.3
2014-Dec-17 00:33N 32°04' E 120°32'1212.1
2014-Dec-16 23:33N 31°58' E 120°19'1110.6
2014-Dec-16 22:30N 31°56' E 120°06'0 0.0
2014-Dec-16 21:33N 31°56' E 120°06'0 0.0
2014-Dec-16 20:33N 31°56' E 120°06'0 0.0
2014-Dec-16 19:33N 31°56' E 120°06'0 0.0
2014-Dec-16 18:33N 31°56' E 120°06'0 0.0
2014-Dec-16 17:33N 31°56' E 120°06'0 0.0
2014-Dec-16 16:33N 31°56' E 120°06'0 0.0
2014-Dec-16 15:27N 31°56' E 120°06'0 0.0
2014-Dec-16 14:33N 31°56' E 120°06'0 0.0
2014-Dec-16 13:33N 31°56' E 120°06'0 0.0
2014-Dec-16 12:33N 31°56' E 120°06'0 0.0
2014-Dec-16 11:33N 31°56' E 120°06'0 0.0
2014-Dec-16 10:27N 31°56' E 120°06'0 0.0
2014-Dec-16 09:33N 31°56' E 120°06'0 0.0
2014-Dec-16 08:33N 31°56' E 120°06'0 0.0
2014-Dec-16 07:33N 31°56' E 120°06'0 0.0
2014-Dec-16 06:33N 31°56' E 120°06'0 0.0
2014-Dec-16 05:33N 31°56' E 120°06'0 0.0
2014-Dec-16 04:15N 31°56' E 120°06'0 0.0
2014-Dec-16 03:30N 31°56' E 120°06'0 0.0
2014-Dec-16 02:16N 31°56' E 120°06'0 0.0
2014-Dec-16 01:06N 31°56' E 120°06'0 0.0
2014-Dec-16 00:26N 31°56' E 120°06'0 0.0
2014-Dec-15 23:33N 31°56' E 120°06'0 0.0
2014-Dec-15 22:30N 31°56' E 120°06'0 0.0
2014-Dec-15 21:06N 31°56' E 120°06'0 0.0
2014-Dec-15 20:33N 31°56' E 120°06'0 0.0
2014-Dec-15 19:33N 31°56' E 120°06'0 0.0
2014-Dec-15 18:27N 31°56' E 120°06'0 0.0
2014-Dec-15 17:27N 31°56' E 120°06'0 0.0
2014-Dec-15 16:21N 31°56' E 120°06'0 0.0
2014-Dec-15 15:27N 31°56' E 120°06'0 0.1
2014-Dec-15 14:30N 31°56' E 120°06'3 2.8
2014-Dec-15 13:29N 31°56' E 120°10'0 0.0
2014-Dec-15 11:26N 31°56' E 120°10'0 0.0
2014-Dec-15 09:05N 31°56' E 120°10'0 0.0
2014-Dec-15 07:14N 31°56' E 120°10'0 0.0
2014-Dec-15 06:26N 31°56' E 120°10'0 0.0
2014-Dec-15 05:20N 31°56' E 120°10'2 3.1
2014-Dec-15 04:33N 31°56' E 120°13'10 9.9
2014-Dec-15 03:33N 31°58' E 120°24'6 6.3
2014-Dec-15 02:33N 32°02' E 120°30'1212.3
2014-Dec-15 01:33N 32°01' E 120°44'1111.4
2014-Dec-15 00:33N 31°52' E 120°54'1110.7
2014-Dec-14 23:33N 31°46' E 121°04'1312.6
2014-Dec-14 22:33N 31°38' E 121°15'6 5.7
2014-Dec-14 21:33N 31°34' E 121°20'0 0.0
2014-Dec-14 20:33N 31°34' E 121°20'0 0.1
2014-Dec-14 19:33N 31°34' E 121°20'0 0.1
2014-Dec-14 18:33N 31°34' E 121°20'0 0.0
2014-Dec-14 17:33N 31°34' E 121°20'0 0.0
2014-Dec-14 16:33N 31°34' E 121°20'0 0.0
2014-Dec-14 15:33N 31°34' E 121°20'0 0.0
2014-Dec-14 14:30N 31°34' E 121°20'0 0.0
2014-Dec-14 13:33N 31°34' E 121°20'0 0.2
2014-Dec-14 12:33N 31°34' E 121°20'0 0.1
2014-Dec-14 11:30N 31°34' E 121°20'0 0.0
2014-Dec-14 10:33N 31°34' E 121°20'0 0.0
2014-Dec-14 09:33N 31°34' E 121°20'5 5.0
2014-Dec-14 08:33N 31°31' E 121°24'9 9.4
2014-Dec-14 07:33N 31°24' E 121°33'10 9.6
2014-Dec-14 06:33N 31°20' E 121°42'1010.4
2014-Dec-14 05:33N 31°16' E 121°54'1212.1
2014-Dec-14 04:33N 31°13' E 122°07'1212.3
2014-Dec-14 03:33N 31°06' E 122°19'  
2014-Dec-10 04:33N 24°30' E 119°10'5210.1
2014-Dec-09 23:26N 23°55' E 118°28'  

Dump ship's entire track history